sensor_id;sensor_type;location;lat;lon;timestamp;P1;durP1;ratioP1;P2;durP2;ratioP2
45007;SDS011;30743;52.008;5.644;2023-08-07T07:02:04;7.18;;;2.05;;
45007;SDS011;30743;52.008;5.644;2023-08-07T07:04:30;6.05;;;1.83;;
45007;SDS011;30743;52.008;5.644;2023-08-07T07:06:56;5.72;;;1.80;;
45007;SDS011;30743;52.008;5.644;2023-08-07T07:09:21;7.45;;;1.92;;
45007;SDS011;30743;52.008;5.644;2023-08-07T07:11:47;11.38;;;2.53;;
45007;SDS011;30743;52.008;5.644;2023-08-07T07:14:12;7.47;;;2.08;;
45007;SDS011;30743;52.008;5.644;2023-08-07T07:16:38;8.02;;;1.95;;
45007;SDS011;30743;52.008;5.644;2023-08-07T07:19:04;11.02;;;2.70;;
45007;SDS011;30743;52.008;5.644;2023-08-07T07:21:33;8.23;;;2.22;;
45007;SDS011;30743;52.008;5.644;2023-08-07T07:23:59;6.45;;;2.08;;
45007;SDS011;30743;52.008;5.644;2023-08-07T07:26:25;5.65;;;1.58;;
45007;SDS011;30743;52.008;5.644;2023-08-07T07:28:51;8.00;;;2.03;;
45007;SDS011;30743;52.008;5.644;2023-08-07T07:31:16;5.30;;;2.08;;
45007;SDS011;30743;52.008;5.644;2023-08-07T07:33:42;6.20;;;2.58;;
45007;SDS011;30743;52.008;5.644;2023-08-07T07:36:12;8.45;;;2.05;;
45007;SDS011;30743;52.008;5.644;2023-08-07T07:38:39;4.57;;;1.52;;
45007;SDS011;30743;52.008;5.644;2023-08-07T07:41:05;4.78;;;1.27;;
45007;SDS011;30743;52.008;5.644;2023-08-07T07:43:35;4.88;;;1.55;;
45007;SDS011;30743;52.008;5.644;2023-08-07T07:46:00;4.40;;;1.85;;
45007;SDS011;30743;52.008;5.644;2023-08-07T07:48:26;5.80;;;1.60;;
45007;SDS011;30743;52.008;5.644;2023-08-07T07:50:51;4.60;;;1.98;;
45007;SDS011;30743;52.008;5.644;2023-08-07T07:53:26;3.35;;;1.40;;
45007;SDS011;30743;52.008;5.644;2023-08-07T07:55:52;3.63;;;1.83;;
45007;SDS011;30743;52.008;5.644;2023-08-07T07:58:17;6.53;;;1.77;;
45007;SDS011;30743;52.008;5.644;2023-08-07T08:00:43;6.95;;;1.92;;
45007;SDS011;30743;52.008;5.644;2023-08-07T08:03:08;5.13;;;1.70;;
45007;SDS011;30743;52.008;5.644;2023-08-07T08:05:34;3.60;;;1.77;;
45007;SDS011;30743;52.008;5.644;2023-08-07T08:08:00;4.40;;;1.60;;
45007;SDS011;30743;52.008;5.644;2023-08-07T08:10:26;4.32;;;1.90;;
45007;SDS011;30743;52.008;5.644;2023-08-07T08:12:54;4.10;;;1.45;;
45007;SDS011;30743;52.008;5.644;2023-08-07T08:15:20;5.15;;;1.65;;
45007;SDS011;30743;52.008;5.644;2023-08-07T08:17:46;4.97;;;1.92;;
45007;SDS011;30743;52.008;5.644;2023-08-07T08:20:12;3.95;;;1.63;;
45007;SDS011;30743;52.008;5.644;2023-08-07T08:22:40;5.55;;;1.80;;
45007;SDS011;30743;52.008;5.644;2023-08-07T08:25:06;8.32;;;2.78;;
45007;SDS011;30743;52.008;5.644;2023-08-07T08:27:32;5.80;;;1.95;;
45007;SDS011;30743;52.008;5.644;2023-08-07T08:29:57;7.88;;;2.13;;
45007;SDS011;30743;52.008;5.644;2023-08-07T08:32:23;9.55;;;2.38;;
45007;SDS011;30743;52.008;5.644;2023-08-07T08:34:48;7.57;;;1.70;;
45007;SDS011;30743;52.008;5.644;2023-08-07T08:37:17;6.10;;;1.90;;
45007;SDS011;30743;52.008;5.644;2023-08-07T08:39:42;6.45;;;2.20;;
45007;SDS011;30743;52.008;5.644;2023-08-07T08:42:08;5.45;;;2.00;;
45007;SDS011;30743;52.008;5.644;2023-08-07T08:44:38;5.90;;;1.48;;
45007;SDS011;30743;52.008;5.644;2023-08-07T08:47:04;6.80;;;1.83;;
45007;SDS011;30743;52.008;5.644;2023-08-07T08:49:32;5.78;;;1.67;;
45007;SDS011;30743;52.008;5.644;2023-08-07T08:52:01;6.95;;;1.70;;
45007;SDS011;30743;52.008;5.644;2023-08-07T08:54:27;3.88;;;1.23;;
45007;SDS011;30743;52.008;5.644;2023-08-07T08:56:54;5.75;;;1.40;;
45007;SDS011;30743;52.008;5.644;2023-08-07T08:59:21;8.95;;;2.40;;
45007;SDS011;30743;52.008;5.644;2023-08-07T09:01:48;2.95;;;1.23;;
45007;SDS011;30743;52.008;5.644;2023-08-07T09:04:16;6.73;;;1.80;;
45007;SDS011;30743;52.008;5.644;2023-08-07T09:06:42;6.90;;;1.50;;
45007;SDS011;30743;52.008;5.644;2023-08-07T09:09:08;6.85;;;1.48;;
45007;SDS011;30743;52.008;5.644;2023-08-07T09:11:35;7.78;;;2.28;;
45007;SDS011;30743;52.008;5.644;2023-08-07T09:14:02;5.55;;;2.08;;
45007;SDS011;30743;52.008;5.644;2023-08-07T09:16:28;4.90;;;1.52;;
45007;SDS011;30743;52.008;5.644;2023-08-07T09:18:55;4.75;;;1.70;;
45007;SDS011;30743;52.008;5.644;2023-08-07T09:21:21;6.15;;;1.38;;
45007;SDS011;30743;52.008;5.644;2023-08-07T09:23:46;4.35;;;1.50;;
45007;SDS011;30743;52.008;5.644;2023-08-07T09:26:12;6.43;;;1.60;;
45007;SDS011;30743;52.008;5.644;2023-08-07T09:28:37;7.10;;;1.80;;
45007;SDS011;30743;52.008;5.644;2023-08-07T09:31:05;4.93;;;1.65;;
45007;SDS011;30743;52.008;5.644;2023-08-07T09:33:31;6.45;;;1.60;;
45007;SDS011;30743;52.008;5.644;2023-08-07T09:36:00;6.40;;;1.85;;
45007;SDS011;30743;52.008;5.644;2023-08-07T09:38:29;6.18;;;2.25;;
45007;SDS011;30743;52.008;5.644;2023-08-07T09:40:59;8.38;;;2.05;;
45007;SDS011;30743;52.008;5.644;2023-08-07T09:43:25;5.13;;;1.60;;
45007;SDS011;30743;52.008;5.644;2023-08-07T09:45:50;6.78;;;1.55;;
45007;SDS011;30743;52.008;5.644;2023-08-07T09:48:22;6.78;;;1.98;;
45007;SDS011;30743;52.008;5.644;2023-08-07T09:50:52;5.97;;;1.30;;
45007;SDS011;30743;52.008;5.644;2023-08-07T09:53:24;5.93;;;1.85;;
45007;SDS011;30743;52.008;5.644;2023-08-07T09:55:52;3.90;;;1.48;;
45007;SDS011;30743;52.008;5.644;2023-08-07T09:58:20;6.38;;;1.35;;
45007;SDS011;30743;52.008;5.644;2023-08-07T10:00:47;4.97;;;1.50;;
45007;SDS011;30743;52.008;5.644;2023-08-07T10:03:13;5.72;;;1.70;;
45007;SDS011;30743;52.008;5.644;2023-08-07T10:05:39;5.45;;;1.70;;
45007;SDS011;30743;52.008;5.644;2023-08-07T10:08:07;3.80;;;1.17;;
45007;SDS011;30743;52.008;5.644;2023-08-07T10:10:33;4.05;;;1.52;;
45007;SDS011;30743;52.008;5.644;2023-08-07T10:13:01;4.50;;;1.40;;
45007;SDS011;30743;52.008;5.644;2023-08-07T10:15:27;5.53;;;2.33;;
45007;SDS011;30743;52.008;5.644;2023-08-07T10:17:54;7.75;;;1.98;;
45007;SDS011;30743;52.008;5.644;2023-08-07T10:20:19;6.13;;;1.50;;
45007;SDS011;30743;52.008;5.644;2023-08-07T10:22:46;7.07;;;1.50;;
45007;SDS011;30743;52.008;5.644;2023-08-07T10:25:12;5.07;;;1.35;;
45007;SDS011;30743;52.008;5.644;2023-08-07T10:27:39;4.22;;;1.63;;
45007;SDS011;30743;52.008;5.644;2023-08-07T10:30:07;6.18;;;1.20;;
45007;SDS011;30743;52.008;5.644;2023-08-07T10:32:39;5.18;;;1.55;;
45007;SDS011;30743;52.008;5.644;2023-08-07T10:35:07;5.72;;;1.50;;
45007;SDS011;30743;52.008;5.644;2023-08-07T10:40:09;5.50;;;1.73;;
45007;SDS011;30743;52.008;5.644;2023-08-07T10:45:19;3.78;;;1.52;;
45007;SDS011;30743;52.008;5.644;2023-08-07T10:50:33;2.40;;;1.33;;
45007;SDS011;30743;52.008;5.644;2023-08-07T10:53:01;5.40;;;1.58;;
45007;SDS011;30743;52.008;5.644;2023-08-07T10:55:30;4.57;;;2.00;;
45007;SDS011;30743;52.008;5.644;2023-08-07T10:57:56;6.75;;;1.90;;
45007;SDS011;30743;52.008;5.644;2023-08-07T11:00:25;5.53;;;1.30;;
45007;SDS011;30743;52.008;5.644;2023-08-07T11:02:52;5.32;;;1.27;;
45007;SDS011;30743;52.008;5.644;2023-08-07T11:05:19;4.78;;;1.40;;
45007;SDS011;30743;52.008;5.644;2023-08-07T11:07:45;6.70;;;1.80;;
45007;SDS011;30743;52.008;5.644;2023-08-07T11:10:12;3.78;;;1.38;;
45007;SDS011;30743;52.008;5.644;2023-08-07T11:12:40;3.08;;;1.40;;
45007;SDS011;30743;52.008;5.644;2023-08-07T11:15:06;4.20;;;1.60;;
45007;SDS011;30743;52.008;5.644;2023-08-07T11:17:32;4.65;;;1.35;;
45007;SDS011;30743;52.008;5.644;2023-08-07T11:19:57;6.32;;;1.40;;
45007;SDS011;30743;52.008;5.644;2023-08-07T11:22:24;5.82;;;1.38;;
45007;SDS011;30743;52.008;5.644;2023-08-07T11:24:50;5.40;;;1.17;;
45007;SDS011;30743;52.008;5.644;2023-08-07T11:27:16;4.43;;;1.45;;
45007;SDS011;30743;52.008;5.644;2023-08-07T11:29:44;5.38;;;1.33;;
45007;SDS011;30743;52.008;5.644;2023-08-07T11:32:12;5.03;;;1.70;;
45007;SDS011;30743;52.008;5.644;2023-08-07T11:34:39;3.65;;;1.15;;
45007;SDS011;30743;52.008;5.644;2023-08-07T11:37:04;5.15;;;1.40;;
45007;SDS011;30743;52.008;5.644;2023-08-07T11:39:30;6.57;;;1.30;;
45007;SDS011;30743;52.008;5.644;2023-08-07T11:41:55;3.15;;;1.05;;
45007;SDS011;30743;52.008;5.644;2023-08-07T11:44:22;4.88;;;1.20;;
45007;SDS011;30743;52.008;5.644;2023-08-07T11:46:47;4.28;;;1.20;;
45007;SDS011;30743;52.008;5.644;2023-08-07T11:49:14;3.92;;;0.95;;
45007;SDS011;30743;52.008;5.644;2023-08-07T11:51:40;3.13;;;1.02;;
45007;SDS011;30743;52.008;5.644;2023-08-07T11:54:06;3.25;;;1.10;;
45007;SDS011;30743;52.008;5.644;2023-08-07T11:56:31;6.72;;;1.38;;
45007;SDS011;30743;52.008;5.644;2023-08-07T11:58:57;4.10;;;1.83;;
45007;SDS011;30743;52.008;5.644;2023-08-07T12:01:24;3.80;;;1.00;;
45007;SDS011;30743;52.008;5.644;2023-08-07T12:04:09;7.25;;;1.40;;
45007;SDS011;30743;52.008;5.644;2023-08-07T12:06:35;4.80;;;1.20;;
45007;SDS011;30743;52.008;5.644;2023-08-07T12:09:04;4.50;;;1.67;;
45007;SDS011;30743;52.008;5.644;2023-08-07T12:11:33;3.72;;;1.30;;
45007;SDS011;30743;52.008;5.644;2023-08-07T12:14:00;5.97;;;1.40;;
45007;SDS011;30743;52.008;5.644;2023-08-07T12:16:32;7.32;;;1.45;;
45007;SDS011;30743;52.008;5.644;2023-08-07T12:18:58;6.10;;;1.65;;
45007;SDS011;30743;52.008;5.644;2023-08-07T12:21:24;4.60;;;1.50;;
45007;SDS011;30743;52.008;5.644;2023-08-07T12:23:51;6.05;;;1.58;;
45007;SDS011;30743;52.008;5.644;2023-08-07T12:28:45;4.47;;;1.60;;
45007;SDS011;30743;52.008;5.644;2023-08-07T12:31:10;4.78;;;1.63;;
45007;SDS011;30743;52.008;5.644;2023-08-07T12:33:36;6.32;;;1.65;;
45007;SDS011;30743;52.008;5.644;2023-08-07T12:36:02;4.95;;;1.30;;
45007;SDS011;30743;52.008;5.644;2023-08-07T12:38:27;5.20;;;1.60;;
45007;SDS011;30743;52.008;5.644;2023-08-07T12:40:54;5.90;;;1.60;;
45007;SDS011;30743;52.008;5.644;2023-08-07T12:43:20;4.60;;;1.52;;
45007;SDS011;30743;52.008;5.644;2023-08-07T12:45:46;3.88;;;1.10;;
45007;SDS011;30743;52.008;5.644;2023-08-07T12:48:12;3.47;;;1.40;;
45007;SDS011;30743;52.008;5.644;2023-08-07T12:50:38;5.10;;;1.95;;
45007;SDS011;30743;52.008;5.644;2023-08-07T12:53:04;3.38;;;1.30;;
45007;SDS011;30743;52.008;5.644;2023-08-07T12:55:29;2.53;;;1.05;;
45007;SDS011;30743;52.008;5.644;2023-08-07T12:57:55;2.58;;;1.15;;
45007;SDS011;30743;52.008;5.644;2023-08-07T13:00:22;5.95;;;1.50;;
45007;SDS011;30743;52.008;5.644;2023-08-07T13:02:48;3.20;;;1.02;;
45007;SDS011;30743;52.008;5.644;2023-08-07T13:05:16;3.85;;;1.30;;
45007;SDS011;30743;52.008;5.644;2023-08-07T13:07:43;5.30;;;1.25;;
45007;SDS011;30743;52.008;5.644;2023-08-07T13:10:10;5.03;;;1.30;;
45007;SDS011;30743;52.008;5.644;2023-08-07T13:12:38;3.80;;;1.00;;
45007;SDS011;30743;52.008;5.644;2023-08-07T13:15:05;2.63;;;1.30;;
45007;SDS011;30743;52.008;5.644;2023-08-07T13:17:33;2.83;;;1.27;;
45007;SDS011;30743;52.008;5.644;2023-08-07T13:20:00;2.03;;;1.00;;
45007;SDS011;30743;52.008;5.644;2023-08-07T13:22:26;4.95;;;1.38;;
45007;SDS011;30743;52.008;5.644;2023-08-07T13:24:53;2.85;;;0.90;;
45007;SDS011;30743;52.008;5.644;2023-08-07T13:27:18;3.10;;;0.95;;
45007;SDS011;30743;52.008;5.644;2023-08-07T13:29:44;4.63;;;1.15;;
45007;SDS011;30743;52.008;5.644;2023-08-07T13:32:09;3.83;;;0.93;;
45007;SDS011;30743;52.008;5.644;2023-08-07T13:34:36;6.03;;;1.30;;
45007;SDS011;30743;52.008;5.644;2023-08-07T13:37:02;1.90;;;1.10;;
45007;SDS011;30743;52.008;5.644;2023-08-07T13:39:29;4.63;;;1.17;;
45007;SDS011;30743;52.008;5.644;2023-08-07T13:41:54;2.25;;;1.05;;
45007;SDS011;30743;52.008;5.644;2023-08-07T13:44:20;6.53;;;1.20;;
45007;SDS011;30743;52.008;5.644;2023-08-07T13:46:47;5.60;;;1.00;;
45007;SDS011;30743;52.008;5.644;2023-08-07T13:49:12;2.83;;;1.00;;
45007;SDS011;30743;52.008;5.644;2023-08-07T13:51:38;4.80;;;1.20;;
45007;SDS011;30743;52.008;5.644;2023-08-07T13:54:05;3.03;;;1.10;;
45007;SDS011;30743;52.008;5.644;2023-08-07T13:56:31;2.95;;;1.10;;
45007;SDS011;30743;52.008;5.644;2023-08-07T13:58:56;6.20;;;1.25;;
45007;SDS011;30743;52.008;5.644;2023-08-07T14:01:21;1.92;;;0.98;;
45007;SDS011;30743;52.008;5.644;2023-08-07T14:03:47;5.68;;;1.80;;
45007;SDS011;30743;52.008;5.644;2023-08-07T14:06:12;1.77;;;0.90;;
45007;SDS011;30743;52.008;5.644;2023-08-07T14:08:38;2.88;;;0.95;;
45007;SDS011;30743;52.008;5.644;2023-08-07T14:11:03;1.65;;;0.98;;
45007;SDS011;30743;52.008;5.644;2023-08-07T14:13:29;1.77;;;0.80;;
45007;SDS011;30743;52.008;5.644;2023-08-07T14:15:55;3.03;;;0.68;;
45007;SDS011;30743;52.008;5.644;2023-08-07T14:18:20;4.05;;;0.90;;
45007;SDS011;30743;52.008;5.644;2023-08-07T14:20:46;1.27;;;0.73;;
45007;SDS011;30743;52.008;5.644;2023-08-07T14:23:11;4.78;;;0.90;;
45007;SDS011;30743;52.008;5.644;2023-08-07T14:25:37;3.75;;;1.10;;
45007;SDS011;30743;52.008;5.644;2023-08-07T14:28:03;1.70;;;0.70;;
45007;SDS011;30743;52.008;5.644;2023-08-07T14:30:31;5.88;;;0.80;;
45007;SDS011;30743;52.008;5.644;2023-08-07T14:32:57;2.45;;;0.68;;
45007;SDS011;30743;52.008;5.644;2023-08-07T14:35:22;3.70;;;1.20;;
45007;SDS011;30743;52.008;5.644;2023-08-07T14:37:48;2.45;;;0.98;;
45007;SDS011;30743;52.008;5.644;2023-08-07T14:40:13;1.20;;;0.80;;
45007;SDS011;30743;52.008;5.644;2023-08-07T14:42:39;2.72;;;0.80;;
45007;SDS011;30743;52.008;5.644;2023-08-07T14:45:05;3.03;;;0.80;;
45007;SDS011;30743;52.008;5.644;2023-08-07T14:47:31;1.52;;;0.63;;
45007;SDS011;30743;52.008;5.644;2023-08-07T14:49:56;2.10;;;0.70;;
45007;SDS011;30743;52.008;5.644;2023-08-07T14:52:22;2.10;;;0.80;;
45007;SDS011;30743;52.008;5.644;2023-08-07T14:54:47;1.20;;;0.80;;
45007;SDS011;30743;52.008;5.644;2023-08-07T14:57:13;3.15;;;0.88;;
45007;SDS011;30743;52.008;5.644;2023-08-07T14:59:39;4.63;;;0.98;;
45007;SDS011;30743;52.008;5.644;2023-08-07T15:02:04;4.35;;;1.35;;
45007;SDS011;30743;52.008;5.644;2023-08-07T15:04:31;5.55;;;1.27;;
45007;SDS011;30743;52.008;5.644;2023-08-07T15:06:56;3.75;;;0.98;;
45007;SDS011;30743;52.008;5.644;2023-08-07T15:09:22;4.90;;;1.20;;
45007;SDS011;30743;52.008;5.644;2023-08-07T15:11:48;5.10;;;1.02;;
45007;SDS011;30743;52.008;5.644;2023-08-07T15:14:13;3.20;;;0.88;;
45007;SDS011;30743;52.008;5.644;2023-08-07T15:16:39;4.22;;;0.90;;
45007;SDS011;30743;52.008;5.644;2023-08-07T15:19:06;2.85;;;0.80;;
45007;SDS011;30743;52.008;5.644;2023-08-07T15:21:31;4.25;;;1.00;;
45007;SDS011;30743;52.008;5.644;2023-08-07T15:23:57;9.93;;;1.23;;
45007;SDS011;30743;52.008;5.644;2023-08-07T15:26:22;2.13;;;0.90;;
45007;SDS011;30743;52.008;5.644;2023-08-07T15:28:48;2.55;;;0.95;;
45007;SDS011;30743;52.008;5.644;2023-08-07T15:31:13;2.03;;;1.10;;
45007;SDS011;30743;52.008;5.644;2023-08-07T15:33:39;2.90;;;1.17;;
45007;SDS011;30743;52.008;5.644;2023-08-07T15:36:05;1.75;;;0.90;;
45007;SDS011;30743;52.008;5.644;2023-08-07T15:38:30;3.38;;;1.17;;
45007;SDS011;30743;52.008;5.644;2023-08-07T15:40:57;3.08;;;1.20;;
45007;SDS011;30743;52.008;5.644;2023-08-07T15:43:22;5.13;;;1.15;;
45007;SDS011;30743;52.008;5.644;2023-08-07T15:45:51;3.42;;;1.52;;
45007;SDS011;30743;52.008;5.644;2023-08-07T15:48:17;3.35;;;1.48;;
45007;SDS011;30743;52.008;5.644;2023-08-07T15:50:43;5.30;;;1.45;;
45007;SDS011;30743;52.008;5.644;2023-08-07T15:53:09;1.98;;;0.95;;
45007;SDS011;30743;52.008;5.644;2023-08-07T15:55:34;2.33;;;1.30;;
45007;SDS011;30743;52.008;5.644;2023-08-07T15:58:01;3.63;;;1.40;;
45007;SDS011;30743;52.008;5.644;2023-08-07T16:00:28;4.88;;;1.10;;
45007;SDS011;30743;52.008;5.644;2023-08-07T16:03:02;2.63;;;1.25;;
45007;SDS011;30743;52.008;5.644;2023-08-07T16:05:31;3.97;;;1.10;;
45007;SDS011;30743;52.008;5.644;2023-08-07T16:07:57;2.65;;;1.42;;
45007;SDS011;30743;52.008;5.644;2023-08-07T16:10:23;4.05;;;1.20;;
45007;SDS011;30743;52.008;5.644;2023-08-07T16:12:50;3.08;;;1.20;;
45007;SDS011;30743;52.008;5.644;2023-08-07T16:15:16;3.95;;;1.17;;
45007;SDS011;30743;52.008;5.644;2023-08-07T16:17:41;2.67;;;1.33;;
45007;SDS011;30743;52.008;5.644;2023-08-07T16:20:07;3.10;;;1.40;;
45007;SDS011;30743;52.008;5.644;2023-08-07T16:22:33;2.75;;;0.90;;
45007;SDS011;30743;52.008;5.644;2023-08-07T16:24:59;4.22;;;1.30;;
45007;SDS011;30743;52.008;5.644;2023-08-07T16:27:25;2.67;;;1.10;;
45007;SDS011;30743;52.008;5.644;2023-08-07T16:29:51;4.10;;;1.10;;
45007;SDS011;30743;52.008;5.644;2023-08-07T16:32:16;2.25;;;1.15;;
45007;SDS011;30743;52.008;5.644;2023-08-07T16:34:42;2.08;;;1.23;;
45007;SDS011;30743;52.008;5.644;2023-08-07T16:37:07;3.28;;;1.00;;
45007;SDS011;30743;52.008;5.644;2023-08-07T16:39:33;2.15;;;1.40;;
45007;SDS011;30743;52.008;5.644;2023-08-07T16:41:58;6.43;;;1.50;;
45007;SDS011;30743;52.008;5.644;2023-08-07T16:44:24;2.95;;;1.20;;
45007;SDS011;30743;52.008;5.644;2023-08-07T16:46:49;1.70;;;1.00;;
45007;SDS011;30743;52.008;5.644;2023-08-07T16:49:15;2.55;;;1.30;;
45007;SDS011;30743;52.008;5.644;2023-08-07T16:51:41;2.40;;;1.23;;
45007;SDS011;30743;52.008;5.644;2023-08-07T16:54:06;3.17;;;1.08;;
45007;SDS011;30743;52.008;5.644;2023-08-07T16:56:32;3.03;;;1.15;;
45007;SDS011;30743;52.008;5.644;2023-08-07T16:58:57;1.70;;;1.15;;
45007;SDS011;30743;52.008;5.644;2023-08-07T17:01:23;4.13;;;1.42;;
45007;SDS011;30743;52.008;5.644;2023-08-07T17:03:48;2.53;;;1.13;;
45007;SDS011;30743;52.008;5.644;2023-08-07T17:06:14;2.33;;;1.23;;
45007;SDS011;30743;52.008;5.644;2023-08-07T17:08:39;3.25;;;1.20;;
45007;SDS011;30743;52.008;5.644;2023-08-07T17:11:05;2.05;;;1.10;;
45007;SDS011;30743;52.008;5.644;2023-08-07T17:13:31;2.47;;;1.10;;
45007;SDS011;30743;52.008;5.644;2023-08-07T17:15:56;2.03;;;1.02;;
45007;SDS011;30743;52.008;5.644;2023-08-07T17:18:22;1.70;;;0.90;;
45007;SDS011;30743;52.008;5.644;2023-08-07T17:20:48;1.95;;;0.85;;
45007;SDS011;30743;52.008;5.644;2023-08-07T17:23:13;3.55;;;0.95;;
45007;SDS011;30743;52.008;5.644;2023-08-07T17:25:40;3.08;;;1.23;;
45007;SDS011;30743;52.008;5.644;2023-08-07T17:28:06;1.95;;;0.80;;
45007;SDS011;30743;52.008;5.644;2023-08-07T17:30:31;1.13;;;0.93;;
45007;SDS011;30743;52.008;5.644;2023-08-07T17:32:57;2.72;;;1.25;;
45007;SDS011;30743;52.008;5.644;2023-08-07T17:35:23;3.15;;;0.95;;
45007;SDS011;30743;52.008;5.644;2023-08-07T17:37:49;2.05;;;1.10;;
45007;SDS011;30743;52.008;5.644;2023-08-07T17:40:15;2.33;;;0.82;;
45007;SDS011;30743;52.008;5.644;2023-08-07T17:42:40;5.10;;;1.15;;
45007;SDS011;30743;52.008;5.644;2023-08-07T17:45:06;1.05;;;0.90;;
45007;SDS011;30743;52.008;5.644;2023-08-07T17:47:32;2.13;;;0.90;;
45007;SDS011;30743;52.008;5.644;2023-08-07T17:49:57;1.52;;;0.90;;
45007;SDS011;30743;52.008;5.644;2023-08-07T17:52:23;2.15;;;1.10;;
45007;SDS011;30743;52.008;5.644;2023-08-07T17:54:50;1.70;;;1.17;;
45007;SDS011;30743;52.008;5.644;2023-08-07T17:57:16;2.60;;;1.33;;
45007;SDS011;30743;52.008;5.644;2023-08-07T17:59:42;4.10;;;1.20;;
45007;SDS011;30743;52.008;5.644;2023-08-07T18:02:07;2.03;;;1.15;;
45007;SDS011;30743;52.008;5.644;2023-08-07T18:04:33;1.55;;;1.10;;
45007;SDS011;30743;52.008;5.644;2023-08-07T18:06:58;1.75;;;1.08;;
45007;SDS011;30743;52.008;5.644;2023-08-07T18:09:24;3.45;;;1.30;;
45007;SDS011;30743;52.008;5.644;2023-08-07T18:11:50;3.00;;;1.50;;
45007;SDS011;30743;52.008;5.644;2023-08-07T18:14:15;2.00;;;1.13;;
45007;SDS011;30743;52.008;5.644;2023-08-07T18:16:41;2.40;;;1.42;;
45007;SDS011;30743;52.008;5.644;2023-08-07T18:19:07;4.30;;;1.25;;
45007;SDS011;30743;52.008;5.644;2023-08-07T18:21:32;3.53;;;1.20;;
45007;SDS011;30743;52.008;5.644;2023-08-07T18:23:58;3.90;;;1.55;;
45007;SDS011;30743;52.008;5.644;2023-08-07T18:26:23;4.97;;;1.58;;
45007;SDS011;30743;52.008;5.644;2023-08-07T18:28:49;3.60;;;1.35;;
45007;SDS011;30743;52.008;5.644;2023-08-07T18:31:14;3.13;;;1.27;;
45007;SDS011;30743;52.008;5.644;2023-08-07T18:33:40;2.92;;;1.17;;
45007;SDS011;30743;52.008;5.644;2023-08-07T18:36:05;2.53;;;1.25;;
45007;SDS011;30743;52.008;5.644;2023-08-07T18:38:31;1.40;;;0.90;;
45007;SDS011;30743;52.008;5.644;2023-08-07T18:40:56;1.77;;;1.15;;
45007;SDS011;30743;52.008;5.644;2023-08-07T18:43:22;3.10;;;1.30;;
45007;SDS011;30743;52.008;5.644;2023-08-07T18:45:47;2.53;;;1.30;;
45007;SDS011;30743;52.008;5.644;2023-08-07T18:48:13;1.65;;;0.90;;
45007;SDS011;30743;52.008;5.644;2023-08-07T18:50:39;3.65;;;1.48;;
45007;SDS011;30743;52.008;5.644;2023-08-07T18:53:06;1.13;;;0.80;;
45007;SDS011;30743;52.008;5.644;2023-08-07T18:55:31;1.40;;;0.85;;
45007;SDS011;30743;52.008;5.644;2023-08-07T18:57:58;1.30;;;0.90;;
45007;SDS011;30743;52.008;5.644;2023-08-07T19:00:24;1.45;;;0.90;;
45007;SDS011;30743;52.008;5.644;2023-08-07T19:02:50;4.43;;;1.00;;
45007;SDS011;30743;52.008;5.644;2023-08-07T19:05:15;2.78;;;1.00;;
45007;SDS011;30743;52.008;5.644;2023-08-07T19:07:41;2.85;;;1.00;;
45007;SDS011;30743;52.008;5.644;2023-08-07T19:10:07;1.45;;;0.90;;
45007;SDS011;30743;52.008;5.644;2023-08-07T19:12:33;2.45;;;1.20;;
45007;SDS011;30743;52.008;5.644;2023-08-07T19:14:58;2.08;;;0.77;;
45007;SDS011;30743;52.008;5.644;2023-08-07T19:17:25;1.50;;;0.95;;
45007;SDS011;30743;52.008;5.644;2023-08-07T19:19:53;4.07;;;1.43;;
45007;SDS011;30743;52.008;5.644;2023-08-07T19:22:19;1.23;;;1.02;;
45007;SDS011;30743;52.008;5.644;2023-08-07T19:24:45;2.45;;;1.00;;
45007;SDS011;30743;52.008;5.644;2023-08-07T19:27:10;2.38;;;1.10;;
45007;SDS011;30743;52.008;5.644;2023-08-07T19:29:36;2.53;;;0.95;;
45007;SDS011;30743;52.008;5.644;2023-08-07T19:32:01;3.63;;;1.10;;
45007;SDS011;30743;52.008;5.644;2023-08-07T19:34:27;1.42;;;1.10;;
45007;SDS011;30743;52.008;5.644;2023-08-07T19:36:52;1.42;;;1.00;;
45007;SDS011;30743;52.008;5.644;2023-08-07T19:39:18;1.35;;;1.02;;
45007;SDS011;30743;52.008;5.644;2023-08-07T19:41:44;1.83;;;1.10;;
45007;SDS011;30743;52.008;5.644;2023-08-07T19:44:09;5.03;;;1.27;;
45007;SDS011;30743;52.008;5.644;2023-08-07T19:46:35;1.70;;;1.20;;
45007;SDS011;30743;52.008;5.644;2023-08-07T19:49:00;2.25;;;1.10;;
45007;SDS011;30743;52.008;5.644;2023-08-07T19:51:26;3.13;;;1.20;;
45007;SDS011;30743;52.008;5.644;2023-08-07T19:53:52;2.35;;;1.35;;
45007;SDS011;30743;52.008;5.644;2023-08-07T19:56:17;2.72;;;1.27;;
45007;SDS011;30743;52.008;5.644;2023-08-07T19:58:43;2.42;;;1.33;;
45007;SDS011;30743;52.008;5.644;2023-08-07T20:01:08;5.70;;;2.83;;
45007;SDS011;30743;52.008;5.644;2023-08-07T20:03:34;2.05;;;1.27;;
45007;SDS011;30743;52.008;5.644;2023-08-07T20:05:59;2.83;;;1.70;;
45007;SDS011;30743;52.008;5.644;2023-08-07T20:08:26;6.63;;;1.90;;
45007;SDS011;30743;52.008;5.644;2023-08-07T20:10:51;3.40;;;2.00;;
45007;SDS011;30743;52.008;5.644;2023-08-07T20:13:17;5.80;;;2.10;;
45007;SDS011;30743;52.008;5.644;2023-08-07T20:15:42;3.17;;;2.28;;
45007;SDS011;30743;52.008;5.644;2023-08-07T20:18:08;5.25;;;2.75;;
45007;SDS011;30743;52.008;5.644;2023-08-07T20:20:33;2.65;;;2.28;;
45007;SDS011;30743;52.008;5.644;2023-08-07T20:22:59;4.60;;;2.17;;
45007;SDS011;30743;52.008;5.644;2023-08-07T20:25:25;4.82;;;2.30;;
45007;SDS011;30743;52.008;5.644;2023-08-07T20:27:51;5.88;;;2.10;;
45007;SDS011;30743;52.008;5.644;2023-08-07T20:30:17;5.50;;;2.25;;
45007;SDS011;30743;52.008;5.644;2023-08-07T20:32:42;3.70;;;2.20;;
45007;SDS011;30743;52.008;5.644;2023-08-07T20:35:08;3.00;;;1.95;;
45007;SDS011;30743;52.008;5.644;2023-08-07T20:37:33;2.50;;;2.08;;
45007;SDS011;30743;52.008;5.644;2023-08-07T20:39:59;4.38;;;2.35;;
45007;SDS011;30743;52.008;5.644;2023-08-07T20:42:25;3.92;;;2.25;;
45007;SDS011;30743;52.008;5.644;2023-08-07T20:44:50;6.25;;;2.40;;
45007;SDS011;30743;52.008;5.644;2023-08-07T20:47:16;5.82;;;2.20;;
45007;SDS011;30743;52.008;5.644;2023-08-07T20:49:41;4.28;;;2.15;;
45007;SDS011;30743;52.008;5.644;2023-08-07T20:52:07;2.92;;;2.10;;
45007;SDS011;30743;52.008;5.644;2023-08-07T20:54:32;3.05;;;2.05;;
45007;SDS011;30743;52.008;5.644;2023-08-07T20:56:58;3.72;;;2.17;;
45007;SDS011;30743;52.008;5.644;2023-08-07T20:59:23;2.40;;;1.85;;
45007;SDS011;30743;52.008;5.644;2023-08-07T21:01:49;10.05;;;2.35;;
45007;SDS011;30743;52.008;5.644;2023-08-07T21:04:15;2.65;;;1.90;;
45007;SDS011;30743;52.008;5.644;2023-08-07T21:06:40;3.30;;;2.03;;
45007;SDS011;30743;52.008;5.644;2023-08-07T21:09:06;5.10;;;2.25;;
45007;SDS011;30743;52.008;5.644;2023-08-07T21:11:32;4.18;;;2.03;;
45007;SDS011;30743;52.008;5.644;2023-08-07T21:13:57;2.92;;;2.00;;
45007;SDS011;30743;52.008;5.644;2023-08-07T21:16:26;2.80;;;2.33;;
45007;SDS011;30743;52.008;5.644;2023-08-07T21:18:52;4.00;;;2.35;;
45007;SDS011;30743;52.008;5.644;2023-08-07T21:21:17;5.25;;;2.28;;
45007;SDS011;30743;52.008;5.644;2023-08-07T21:23:43;3.35;;;2.35;;
45007;SDS011;30743;52.008;5.644;2023-08-07T21:26:09;4.85;;;1.90;;
45007;SDS011;30743;52.008;5.644;2023-08-07T21:28:34;3.78;;;2.10;;
45007;SDS011;30743;52.008;5.644;2023-08-07T21:31:00;6.03;;;2.50;;
45007;SDS011;30743;52.008;5.644;2023-08-07T21:33:25;4.47;;;2.60;;
45007;SDS011;30743;52.008;5.644;2023-08-07T21:35:51;3.15;;;2.30;;
45007;SDS011;30743;52.008;5.644;2023-08-07T21:38:17;3.88;;;2.85;;
45007;SDS011;30743;52.008;5.644;2023-08-07T21:40:42;3.10;;;2.13;;
45007;SDS011;30743;52.008;5.644;2023-08-07T21:43:08;2.92;;;2.17;;
45007;SDS011;30743;52.008;5.644;2023-08-07T21:45:34;3.72;;;1.88;;
45007;SDS011;30743;52.008;5.644;2023-08-07T21:47:59;2.63;;;1.98;;
45007;SDS011;30743;52.008;5.644;2023-08-07T21:50:25;4.45;;;2.38;;
45007;SDS011;30743;52.008;5.644;2023-08-07T21:52:50;2.70;;;2.00;;